sensor_id;sensor_type;location;lat;lon;timestamp;temperature;humidity
17033;DHT22;63208;52.178;21.016;2023-06-14T00:01:41;13.60;99.90
17033;DHT22;63208;52.178;21.016;2023-06-14T00:04:11;13.70;99.90
17033;DHT22;63208;52.178;21.016;2023-06-14T00:06:38;13.60;99.90
17033;DHT22;63208;52.178;21.016;2023-06-14T00:09:04;13.60;99.90
17033;DHT22;63208;52.178;21.016;2023-06-14T00:11:33;13.60;99.90
17033;DHT22;63208;52.178;21.016;2023-06-14T00:14:00;13.60;99.90
17033;DHT22;63208;52.178;21.016;2023-06-14T00:16:30;13.60;99.90
17033;DHT22;63208;52.178;21.016;2023-06-14T00:18:58;13.60;99.90
17033;DHT22;63208;52.178;21.016;2023-06-14T00:21:25;13.60;99.90
17033;DHT22;63208;52.178;21.016;2023-06-14T00:23:55;13.60;99.90
17033;DHT22;63208;52.178;21.016;2023-06-14T00:26:21;13.50;99.90
17033;DHT22;63208;52.178;21.016;2023-06-14T00:28:48;13.60;99.90
17033;DHT22;63208;52.178;21.016;2023-06-14T00:31:15;13.50;99.90
17033;DHT22;63208;52.178;21.016;2023-06-14T00:33:43;13.60;99.90
17033;DHT22;63208;52.178;21.016;2023-06-14T00:36:10;13.50;99.90
17033;DHT22;63208;52.178;21.016;2023-06-14T00:38:36;13.50;99.90
17033;DHT22;63208;52.178;21.016;2023-06-14T00:41:03;13.50;99.90
17033;DHT22;63208;52.178;21.016;2023-06-14T00:43:30;13.50;99.90
17033;DHT22;63208;52.178;21.016;2023-06-14T00:45:57;13.40;99.90
17033;DHT22;63208;52.178;21.016;2023-06-14T00:48:23;13.50;99.90
17033;DHT22;63208;52.178;21.016;2023-06-14T00:50:52;13.40;99.90
17033;DHT22;63208;52.178;21.016;2023-06-14T00:53:19;13.40;99.90
17033;DHT22;63208;52.178;21.016;2023-06-14T00:55:48;13.40;99.90
17033;DHT22;63208;52.178;21.016;2023-06-14T00:58:15;13.50;99.90
17033;DHT22;63208;52.178;21.016;2023-06-14T01:00:42;13.50;99.90
17033;DHT22;63208;52.178;21.016;2023-06-14T01:03:09;13.50;99.90
17033;DHT22;63208;52.178;21.016;2023-06-14T01:05:38;13.50;99.90
17033;DHT22;63208;52.178;21.016;2023-06-14T01:08:13;13.50;99.90
17033;DHT22;63208;52.178;21.016;2023-06-14T01:10:45;13.50;99.90
17033;DHT22;63208;52.178;21.016;2023-06-14T01:13:18;13.50;99.90
17033;DHT22;63208;52.178;21.016;2023-06-14T01:15:46;13.40;99.90
17033;DHT22;63208;52.178;21.016;2023-06-14T01:18:13;13.40;99.90
17033;DHT22;63208;52.178;21.016;2023-06-14T01:20:42;13.40;99.90
17033;DHT22;63208;52.178;21.016;2023-06-14T01:23:11;13.40;99.90
17033;DHT22;63208;52.178;21.016;2023-06-14T01:28:41;16.90;99.90
17033;DHT22;63208;52.178;21.016;2023-06-14T01:31:15;13.40;99.90
17033;DHT22;63208;52.178;21.016;2023-06-14T01:33:42;13.40;99.90
17033;DHT22;63208;52.178;21.016;2023-06-14T01:36:09;13.40;99.90
17033;DHT22;63208;52.178;21.016;2023-06-14T01:38:38;13.40;99.90
17033;DHT22;63208;52.178;21.016;2023-06-14T01:41:04;13.40;99.90
17033;DHT22;63208;52.178;21.016;2023-06-14T01:43:32;13.40;99.90
17033;DHT22;63208;52.178;21.016;2023-06-14T01:45:59;13.50;99.90
17033;DHT22;63208;52.178;21.016;2023-06-14T01:48:26;13.40;99.90
17033;DHT22;63208;52.178;21.016;2023-06-14T01:50:53;13.40;99.90
17033;DHT22;63208;52.178;21.016;2023-06-14T01:53:20;13.40;99.90
17033;DHT22;63208;52.178;21.016;2023-06-14T01:55:48;13.50;99.90
17033;DHT22;63208;52.178;21.016;2023-06-14T01:58:15;13.50;99.90
17033;DHT22;63208;52.178;21.016;2023-06-14T02:00:42;13.50;99.90
17033;DHT22;63208;52.178;21.016;2023-06-14T02:03:10;13.50;99.90
17033;DHT22;63208;52.178;21.016;2023-06-14T02:05:38;13.50;99.90
17033;DHT22;63208;52.178;21.016;2023-06-14T02:08:05;13.50;99.90
17033;DHT22;63208;52.178;21.016;2023-06-14T02:10:32;13.50;99.90
17033;DHT22;63208;52.178;21.016;2023-06-14T02:13:00;13.40;99.90
17033;DHT22;63208;52.178;21.016;2023-06-14T02:15:27;13.40;99.90
17033;DHT22;63208;52.178;21.016;2023-06-14T02:17:59;13.50;99.90
17033;DHT22;63208;52.178;21.016;2023-06-14T02:20:25;13.50;99.90
17033;DHT22;63208;52.178;21.016;2023-06-14T02:22:52;13.50;99.90
17033;DHT22;63208;52.178;21.016;2023-06-14T02:25:19;13.50;99.90
17033;DHT22;63208;52.178;21.016;2023-06-14T02:27:45;13.50;99.90
17033;DHT22;63208;52.178;21.016;2023-06-14T02:30:14;13.50;99.90
17033;DHT22;63208;52.178;21.016;2023-06-14T02:32:41;13.50;99.90
17033;DHT22;63208;52.178;21.016;2023-06-14T02:35:08;13.50;99.90
17033;DHT22;63208;52.178;21.016;2023-06-14T02:37:35;13.50;99.90
17033;DHT22;63208;52.178;21.016;2023-06-14T02:40:02;13.50;99.90
17033;DHT22;63208;52.178;21.016;2023-06-14T02:42:29;13.50;99.90
17033;DHT22;63208;52.178;21.016;2023-06-14T02:44:55;13.50;99.90
17033;DHT22;63208;52.178;21.016;2023-06-14T02:47:23;13.50;99.90
17033;DHT22;63208;52.178;21.016;2023-06-14T02:49:51;13.50;99.90
17033;DHT22;63208;52.178;21.016;2023-06-14T02:52:18;13.50;99.90
17033;DHT22;63208;52.178;21.016;2023-06-14T02:54:45;13.50;99.90
17033;DHT22;63208;52.178;21.016;2023-06-14T02:57:12;13.50;99.90
17033;DHT22;63208;52.178;21.016;2023-06-14T02:59:39;13.60;99.90
17033;DHT22;63208;52.178;21.016;2023-06-14T03:02:06;13.50;99.90
17033;DHT22;63208;52.178;21.016;2023-06-14T03:04:34;13.50;99.90
17033;DHT22;63208;52.178;21.016;2023-06-14T03:07:02;13.60;99.90
17033;DHT22;63208;52.178;21.016;2023-06-14T03:09:34;13.60;99.90
17033;DHT22;63208;52.178;21.016;2023-06-14T03:12:01;13.60;99.90
17033;DHT22;63208;52.178;21.016;2023-06-14T03:14:28;13.60;99.90
17033;DHT22;63208;52.178;21.016;2023-06-14T03:16:56;13.60;99.90
17033;DHT22;63208;52.178;21.016;2023-06-14T03:19:22;13.60;99.90
17033;DHT22;63208;52.178;21.016;2023-06-14T03:21:50;13.60;99.90
17033;DHT22;63208;52.178;21.016;2023-06-14T03:24:17;13.70;99.90
17033;DHT22;63208;52.178;21.016;2023-06-14T03:26:45;13.60;99.90
17033;DHT22;63208;52.178;21.016;2023-06-14T03:29:11;13.60;99.90
17033;DHT22;63208;52.178;21.016;2023-06-14T03:31:41;13.60;99.90
17033;DHT22;63208;52.178;21.016;2023-06-14T03:34:22;13.60;99.90
17033;DHT22;63208;52.178;21.016;2023-06-14T03:36:49;13.60;99.90
17033;DHT22;63208;52.178;21.016;2023-06-14T03:39:17;13.60;99.90
17033;DHT22;63208;52.178;21.016;2023-06-14T03:41:43;13.70;99.90
17033;DHT22;63208;52.178;21.016;2023-06-14T03:44:10;13.60;99.90
17033;DHT22;63208;52.178;21.016;2023-06-14T03:46:37;13.60;99.90
17033;DHT22;63208;52.178;21.016;2023-06-14T03:49:03;13.60;99.90
17033;DHT22;63208;52.178;21.016;2023-06-14T03:51:30;13.60;99.90
17033;DHT22;63208;52.178;21.016;2023-06-14T03:53:57;13.70;99.90
17033;DHT22;63208;52.178;21.016;2023-06-14T03:56:25;13.60;99.90
17033;DHT22;63208;52.178;21.016;2023-06-14T03:58:52;13.70;99.90
17033;DHT22;63208;52.178;21.016;2023-06-14T04:01:18;13.60;99.90
17033;DHT22;63208;52.178;21.016;2023-06-14T04:03:46;13.70;99.90
17033;DHT22;63208;52.178;21.016;2023-06-14T04:06:13;13.70;99.90
17033;DHT22;63208;52.178;21.016;2023-06-14T04:08:45;13.80;99.90
17033;DHT22;63208;52.178;21.016;2023-06-14T04:11:11;13.80;99.90
17033;DHT22;63208;52.178;21.016;2023-06-14T04:13:40;13.80;99.90
17033;DHT22;63208;52.178;21.016;2023-06-14T04:16:06;13.80;99.90
17033;DHT22;63208;52.178;21.016;2023-06-14T04:18:33;13.90;99.90
17033;DHT22;63208;52.178;21.016;2023-06-14T04:21:00;13.90;99.90
17033;DHT22;63208;52.178;21.016;2023-06-14T04:23:27;13.90;99.90
17033;DHT22;63208;52.178;21.016;2023-06-14T04:25:53;13.90;99.90
17033;DHT22;63208;52.178;21.016;2023-06-14T04:28:27;13.90;99.90
17033;DHT22;63208;52.178;21.016;2023-06-14T04:30:55;14.00;99.90
17033;DHT22;63208;52.178;21.016;2023-06-14T04:33:22;14.00;99.90
17033;DHT22;63208;52.178;21.016;2023-06-14T04:35:50;14.00;99.90
17033;DHT22;63208;52.178;21.016;2023-06-14T04:38:19;14.10;99.90
17033;DHT22;63208;52.178;21.016;2023-06-14T04:40:49;14.10;99.90
17033;DHT22;63208;52.178;21.016;2023-06-14T04:43:18;14.20;99.90
17033;DHT22;63208;52.178;21.016;2023-06-14T04:45:53;14.20;99.90
17033;DHT22;63208;52.178;21.016;2023-06-14T04:48:21;14.20;99.90
17033;DHT22;63208;52.178;21.016;2023-06-14T04:50:48;14.30;99.90
17033;DHT22;63208;52.178;21.016;2023-06-14T04:53:18;14.30;99.90
17033;DHT22;63208;52.178;21.016;2023-06-14T04:55:46;14.30;99.90
17033;DHT22;63208;52.178;21.016;2023-06-14T04:58:13;14.30;99.90
17033;DHT22;63208;52.178;21.016;2023-06-14T05:00:40;14.30;99.90
17033;DHT22;63208;52.178;21.016;2023-06-14T05:03:08;14.40;99.90
17033;DHT22;63208;52.178;21.016;2023-06-14T05:05:40;14.40;99.90
17033;DHT22;63208;52.178;21.016;2023-06-14T05:08:07;14.30;99.90
17033;DHT22;63208;52.178;21.016;2023-06-14T05:10:33;14.40;99.90
17033;DHT22;63208;52.178;21.016;2023-06-14T05:13:01;14.40;99.90
17033;DHT22;63208;52.178;21.016;2023-06-14T05:15:28;14.40;99.90
17033;DHT22;63208;52.178;21.016;2023-06-14T05:17:55;14.40;99.90
17033;DHT22;63208;52.178;21.016;2023-06-14T05:20:22;14.40;99.90
17033;DHT22;63208;52.178;21.016;2023-06-14T05:22:51;14.40;99.90
17033;DHT22;63208;52.178;21.016;2023-06-14T05:25:18;14.40;99.90
17033;DHT22;63208;52.178;21.016;2023-06-14T05:27:45;14.50;99.90
17033;DHT22;63208;52.178;21.016;2023-06-14T05:30:12;14.40;99.90
17033;DHT22;63208;52.178;21.016;2023-06-14T05:32:39;14.50;99.90
17033;DHT22;63208;52.178;21.016;2023-06-14T05:35:06;14.50;99.90
17033;DHT22;63208;52.178;21.016;2023-06-14T05:37:32;14.60;99.90
17033;DHT22;63208;52.178;21.016;2023-06-14T05:40:01;14.60;99.90
17033;DHT22;63208;52.178;21.016;2023-06-14T05:42:29;14.50;99.90
17033;DHT22;63208;52.178;21.016;2023-06-14T05:44:56;14.60;99.90
17033;DHT22;63208;52.178;21.016;2023-06-14T05:47:23;14.60;99.90
17033;DHT22;63208;52.178;21.016;2023-06-14T05:49:49;14.60;99.90
17033;DHT22;63208;52.178;21.016;2023-06-14T05:52:16;14.70;99.90
17033;DHT22;63208;52.178;21.016;2023-06-14T05:54:43;14.70;99.90
17033;DHT22;63208;52.178;21.016;2023-06-14T05:57:11;14.70;99.90
17033;DHT22;63208;52.178;21.016;2023-06-14T05:59:38;14.70;99.90
17033;DHT22;63208;52.178;21.016;2023-06-14T06:02:05;14.80;99.90
17033;DHT22;63208;52.178;21.016;2023-06-14T06:04:32;14.80;99.90
17033;DHT22;63208;52.178;21.016;2023-06-14T06:06:58;14.80;99.90
17033;DHT22;63208;52.178;21.016;2023-06-14T06:09:26;14.80;99.90
17033;DHT22;63208;52.178;21.016;2023-06-14T06:11:52;15.00;99.90
17033;DHT22;63208;52.178;21.016;2023-06-14T06:14:20;15.00;99.90
17033;DHT22;63208;52.178;21.016;2023-06-14T06:16:47;15.10;99.90
17033;DHT22;63208;52.178;21.016;2023-06-14T06:19:14;15.10;99.90
17033;DHT22;63208;52.178;21.016;2023-06-14T06:21:41;15.10;99.90
17033;DHT22;63208;52.178;21.016;2023-06-14T06:24:07;15.20;99.90
17033;DHT22;63208;52.178;21.016;2023-06-14T06:26:34;15.20;99.90
17033;DHT22;63208;52.178;21.016;2023-06-14T06:29:01;15.30;99.90
17033;DHT22;63208;52.178;21.016;2023-06-14T06:31:30;15.30;99.90
17033;DHT22;63208;52.178;21.016;2023-06-14T06:33:56;15.30;99.90
17033;DHT22;63208;52.178;21.016;2023-06-14T06:36:24;15.30;99.90
17033;DHT22;63208;52.178;21.016;2023-06-14T06:39:04;15.40;99.90
17033;DHT22;63208;52.178;21.016;2023-06-14T06:41:35;15.40;99.90
17033;DHT22;63208;52.178;21.016;2023-06-14T06:44:03;15.40;99.90
17033;DHT22;63208;52.178;21.016;2023-06-14T06:46:31;15.50;99.90
17033;DHT22;63208;52.178;21.016;2023-06-14T06:49:00;15.50;99.90
17033;DHT22;63208;52.178;21.016;2023-06-14T06:51:27;15.60;99.90
17033;DHT22;63208;52.178;21.016;2023-06-14T06:53:54;15.70;99.90
17033;DHT22;63208;52.178;21.016;2023-06-14T06:56:21;15.60;99.90
17033;DHT22;63208;52.178;21.016;2023-06-14T06:58:48;15.60;99.90
17033;DHT22;63208;52.178;21.016;2023-06-14T07:01:15;15.60;99.90
17033;DHT22;63208;52.178;21.016;2023-06-14T07:03:43;15.70;99.90
17033;DHT22;63208;52.178;21.016;2023-06-14T07:06:17;15.70;99.90
17033;DHT22;63208;52.178;21.016;2023-06-14T07:08:47;15.80;99.90
17033;DHT22;63208;52.178;21.016;2023-06-14T07:16:26;15.90;99.90
17033;DHT22;63208;52.178;21.016;2023-06-14T07:18:54;16.00;99.90
17033;DHT22;63208;52.178;21.016;2023-06-14T07:21:21;16.00;99.90
17033;DHT22;63208;52.178;21.016;2023-06-14T07:23:48;16.00;99.90
17033;DHT22;63208;52.178;21.016;2023-06-14T07:26:15;16.00;99.90
17033;DHT22;63208;52.178;21.016;2023-06-14T07:28:42;16.00;99.90
17033;DHT22;63208;52.178;21.016;2023-06-14T07:31:10;16.00;99.90
17033;DHT22;63208;52.178;21.016;2023-06-14T07:33:38;16.00;99.90
17033;DHT22;63208;52.178;21.016;2023-06-14T07:36:06;16.10;99.90
17033;DHT22;63208;52.178;21.016;2023-06-14T07:38:33;16.00;99.90
17033;DHT22;63208;52.178;21.016;2023-06-14T07:40:59;16.10;99.90
17033;DHT22;63208;52.178;21.016;2023-06-14T07:43:26;16.10;99.90
17033;DHT22;63208;52.178;21.016;2023-06-14T07:45:53;16.20;99.90
17033;DHT22;63208;52.178;21.016;2023-06-14T07:48:20;16.10;99.90
17033;DHT22;63208;52.178;21.016;2023-06-14T07:50:47;16.30;99.90
17033;DHT22;63208;52.178;21.016;2023-06-14T07:53:15;16.20;99.90
17033;DHT22;63208;52.178;21.016;2023-06-14T07:55:42;16.20;99.90
17033;DHT22;63208;52.178;21.016;2023-06-14T07:58:09;16.20;99.90
17033;DHT22;63208;52.178;21.016;2023-06-14T08:00:36;16.30;99.90
17033;DHT22;63208;52.178;21.016;2023-06-14T08:03:03;16.40;99.90
17033;DHT22;63208;52.178;21.016;2023-06-14T08:05:29;16.40;99.90
17033;DHT22;63208;52.178;21.016;2023-06-14T08:07:56;16.40;99.90
17033;DHT22;63208;52.178;21.016;2023-06-14T08:10:24;16.40;99.90
17033;DHT22;63208;52.178;21.016;2023-06-14T08:12:51;16.50;99.90
17033;DHT22;63208;52.178;21.016;2023-06-14T08:15:18;16.50;99.90
17033;DHT22;63208;52.178;21.016;2023-06-14T08:17:45;16.50;99.90
17033;DHT22;63208;52.178;21.016;2023-06-14T08:20:12;16.60;99.90
17033;DHT22;63208;52.178;21.016;2023-06-14T08:22:42;16.60;99.90
17033;DHT22;63208;52.178;21.016;2023-06-14T08:25:09;16.60;99.90
17033;DHT22;63208;52.178;21.016;2023-06-14T08:27:37;16.70;99.90
17033;DHT22;63208;52.178;21.016;2023-06-14T08:30:04;16.70;99.90
17033;DHT22;63208;52.178;21.016;2023-06-14T08:32:33;16.80;99.90
17033;DHT22;63208;52.178;21.016;2023-06-14T08:34:59;16.70;99.90
17033;DHT22;63208;52.178;21.016;2023-06-14T08:37:26;17.00;99.90
17033;DHT22;63208;52.178;21.016;2023-06-14T08:39:53;16.90;99.90
17033;DHT22;63208;52.178;21.016;2023-06-14T08:42:21;17.00;99.90
17033;DHT22;63208;52.178;21.016;2023-06-14T08:44:51;17.20;99.90
17033;DHT22;63208;52.178;21.016;2023-06-14T08:47:18;17.30;99.90
17033;DHT22;63208;52.178;21.016;2023-06-14T08:49:46;17.30;99.90
17033;DHT22;63208;52.178;21.016;2023-06-14T08:52:13;17.40;99.90
17033;DHT22;63208;52.178;21.016;2023-06-14T08:54:44;17.40;99.90
17033;DHT22;63208;52.178;21.016;2023-06-14T08:57:14;17.50;99.90
17033;DHT22;63208;52.178;21.016;2023-06-14T08:59:45;17.60;99.90
17033;DHT22;63208;52.178;21.016;2023-06-14T09:02:18;17.70;99.90
17033;DHT22;63208;52.178;21.016;2023-06-14T09:04:47;17.70;99.90
17033;DHT22;63208;52.178;21.016;2023-06-14T09:07:15;17.70;99.90
17033;DHT22;63208;52.178;21.016;2023-06-14T09:09:42;17.80;99.90
17033;DHT22;63208;52.178;21.016;2023-06-14T09:12:09;17.90;99.90
17033;DHT22;63208;52.178;21.016;2023-06-14T09:14:49;17.90;99.90
17033;DHT22;63208;52.178;21.016;2023-06-14T09:17:17;17.90;99.90
17033;DHT22;63208;52.178;21.016;2023-06-14T09:19:45;17.90;99.90
17033;DHT22;63208;52.178;21.016;2023-06-14T09:22:11;17.90;99.90
17033;DHT22;63208;52.178;21.016;2023-06-14T09:24:38;17.80;99.90
17033;DHT22;63208;52.178;21.016;2023-06-14T09:27:05;17.80;99.90
17033;DHT22;63208;52.178;21.016;2023-06-14T09:29:32;17.80;99.90
17033;DHT22;63208;52.178;21.016;2023-06-14T09:31:58;17.60;99.90
17033;DHT22;63208;52.178;21.016;2023-06-14T09:43:39;17.70;99.90
17033;DHT22;63208;52.178;21.016;2023-06-14T09:46:06;17.70;99.90
17033;DHT22;63208;52.178;21.016;2023-06-14T09:48:34;17.70;99.90
17033;DHT22;63208;52.178;21.016;2023-06-14T09:51:01;17.60;99.90
17033;DHT22;63208;52.178;21.016;2023-06-14T09:53:29;17.60;99.90
17033;DHT22;63208;52.178;21.016;2023-06-14T09:55:56;17.70;99.90
17033;DHT22;63208;52.178;21.016;2023-06-14T09:58:23;17.80;99.90
17033;DHT22;63208;52.178;21.016;2023-06-14T10:00:54;17.80;99.90
17033;DHT22;63208;52.178;21.016;2023-06-14T10:03:24;17.80;99.90
17033;DHT22;63208;52.178;21.016;2023-06-14T10:05:52;18.40;99.90
17033;DHT22;63208;52.178;21.016;2023-06-14T10:08:19;17.80;99.90
17033;DHT22;63208;52.178;21.016;2023-06-14T10:10:46;17.90;99.90
17033;DHT22;63208;52.178;21.016;2023-06-14T10:13:13;17.90;99.90
17033;DHT22;63208;52.178;21.016;2023-06-14T10:15:43;17.90;99.90
17033;DHT22;63208;52.178;21.016;2023-06-14T10:18:17;18.10;99.90
17033;DHT22;63208;52.178;21.016;2023-06-14T10:20:55;18.30;99.90
17033;DHT22;63208;52.178;21.016;2023-06-14T10:25:54;18.40;99.90
17033;DHT22;63208;52.178;21.016;2023-06-14T10:28:22;18.60;99.90
17033;DHT22;63208;52.178;21.016;2023-06-14T10:31:03;18.60;99.90
17033;DHT22;63208;52.178;21.016;2023-06-14T10:33:31;18.60;99.90
17033;DHT22;63208;52.178;21.016;2023-06-14T10:36:23;18.70;99.90
17033;DHT22;63208;52.178;21.016;2023-06-14T10:38:56;18.80;99.90
17033;DHT22;63208;52.178;21.016;2023-06-14T10:41:23;18.80;99.90
17033;DHT22;63208;52.178;21.016;2023-06-14T10:43:51;18.80;99.90
17033;DHT22;63208;52.178;21.016;2023-06-14T10:46:19;18.90;99.90
17033;DHT22;63208;52.178;21.016;2023-06-14T10:48:49;18.90;99.90
17033;DHT22;63208;52.178;21.016;2023-06-14T10:51:38;19.20;99.90
17033;DHT22;63208;52.178;21.016;2023-06-14T10:54:11;19.30;99.90
17033;DHT22;63208;52.178;21.016;2023-06-14T10:56:38;19.20;99.90
17033;DHT22;63208;52.178;21.016;2023-06-14T10:59:05;19.20;99.90
17033;DHT22;63208;52.178;21.016;2023-06-14T11:01:35;19.40;99.90
17033;DHT22;63208;52.178;21.016;2023-06-14T11:04:10;19.40;99.90
17033;DHT22;63208;52.178;21.016;2023-06-14T11:06:44;19.30;99.90
17033;DHT22;63208;52.178;21.016;2023-06-14T11:12:03;19.40;99.90
17033;DHT22;63208;52.178;21.016;2023-06-14T11:14:30;19.30;99.90
17033;DHT22;63208;52.178;21.016;2023-06-14T11:16:57;19.00;99.90
17033;DHT22;63208;52.178;21.016;2023-06-14T11:19:28;19.00;99.90
17033;DHT22;63208;52.178;21.016;2023-06-14T11:21:59;18.70;99.90
17033;DHT22;63208;52.178;21.016;2023-06-14T11:24:33;18.70;99.90
17033;DHT22;63208;52.178;21.016;2023-06-14T11:27:06;18.60;99.90
17033;DHT22;63208;52.178;21.016;2023-06-14T11:29:35;18.70;99.90
17033;DHT22;63208;52.178;21.016;2023-06-14T11:32:10;18.70;99.90
17033;DHT22;63208;52.178;21.016;2023-06-14T11:34:39;18.70;99.90
17033;DHT22;63208;52.178;21.016;2023-06-14T11:37:06;18.70;99.90
17033;DHT22;63208;52.178;21.016;2023-06-14T11:39:33;18.80;99.90
17033;DHT22;63208;52.178;21.016;2023-06-14T11:42:00;18.90;99.90
17033;DHT22;63208;52.178;21.016;2023-06-14T11:44:28;18.90;99.90
17033;DHT22;63208;52.178;21.016;2023-06-14T11:53:03;19.50;99.90
17033;DHT22;63208;52.178;21.016;2023-06-14T11:55:32;19.60;99.90
17033;DHT22;63208;52.178;21.016;2023-06-14T11:58:02;19.70;99.90
17033;DHT22;63208;52.178;21.016;2023-06-14T12:00:42;19.70;99.90
17033;DHT22;63208;52.178;21.016;2023-06-14T12:03:09;20.10;99.90
17033;DHT22;63208;52.178;21.016;2023-06-14T12:05:38;20.20;99.90
17033;DHT22;63208;52.178;21.016;2023-06-14T12:08:06;20.20;99.90
17033;DHT22;63208;52.178;21.016;2023-06-14T12:10:39;20.10;99.90
17033;DHT22;63208;52.178;21.016;2023-06-14T12:13:06;19.90;99.90
17033;DHT22;63208;52.178;21.016;2023-06-14T12:15:33;19.80;99.90
17033;DHT22;63208;52.178;21.016;2023-06-14T12:18:05;19.70;99.90
17033;DHT22;63208;52.178;21.016;2023-06-14T12:20:32;19.60;99.90
17033;DHT22;63208;52.178;21.016;2023-06-14T12:23:02;19.50;99.90
17033;DHT22;63208;52.178;21.016;2023-06-14T12:25:30;19.60;99.90
17033;DHT22;63208;52.178;21.016;2023-06-14T12:28:03;19.70;99.90
17033;DHT22;63208;52.178;21.016;2023-06-14T12:30:31;19.70;99.90
17033;DHT22;63208;52.178;21.016;2023-06-14T12:32:58;19.70;99.90
17033;DHT22;63208;52.178;21.016;2023-06-14T12:35:25;19.70;99.90
17033;DHT22;63208;52.178;21.016;2023-06-14T12:37:52;19.80;99.90
17033;DHT22;63208;52.178;21.016;2023-06-14T12:40:19;20.20;99.90
17033;DHT22;63208;52.178;21.016;2023-06-14T12:42:47;20.80;99.90
17033;DHT22;63208;52.178;21.016;2023-06-14T12:45:14;21.10;99.90
17033;DHT22;63208;52.178;21.016;2023-06-14T12:47:41;21.00;99.90
17033;DHT22;63208;52.178;21.016;2023-06-14T12:50:08;20.70;99.90
17033;DHT22;63208;52.178;21.016;2023-06-14T12:52:35;20.40;99.90
17033;DHT22;63208;52.178;21.016;2023-06-14T12:55:02;20.60;99.90
17033;DHT22;63208;52.178;21.016;2023-06-14T12:57:30;20.80;99.90
17033;DHT22;63208;52.178;21.016;2023-06-14T12:59:59;20.70;99.90
17033;DHT22;63208;52.178;21.016;2023-06-14T13:02:26;21.00;99.90
17033;DHT22;63208;52.178;21.016;2023-06-14T13:04:52;21.40;99.90
17033;DHT22;63208;52.178;21.016;2023-06-14T13:07:19;21.80;99.90
17033;DHT22;63208;52.178;21.016;2023-06-14T13:09:46;22.10;99.90
17033;DHT22;63208;52.178;21.016;2023-06-14T13:18:32;21.70;99.90
17033;DHT22;63208;52.178;21.016;2023-06-14T13:21:03;21.70;99.90
17033;DHT22;63208;52.178;21.016;2023-06-14T13:29:37;23.60;99.90
17033;DHT22;63208;52.178;21.016;2023-06-14T13:32:04;24.10;99.90
17033;DHT22;63208;52.178;21.016;2023-06-14T13:34:32;24.00;99.90
17033;DHT22;63208;52.178;21.016;2023-06-14T13:36:59;24.80;99.90
17033;DHT22;63208;52.178;21.016;2023-06-14T13:39:26;25.20;99.90
17033;DHT22;63208;52.178;21.016;2023-06-14T13:41:52;25.60;98.00
17033;DHT22;63208;52.178;21.016;2023-06-14T13:44:19;24.50;97.20
17033;DHT22;63208;52.178;21.016;2023-06-14T13:46:46;24.50;97.70
17033;DHT22;63208;52.178;21.016;2023-06-14T13:49:13;25.70;95.60
17033;DHT22;63208;52.178;21.016;2023-06-14T13:51:53;25.50;93.90
17033;DHT22;63208;52.178;21.016;2023-06-14T13:54:20;25.50;94.20
17033;DHT22;63208;52.178;21.016;2023-06-14T13:56:47;25.40;93.10
17033;DHT22;63208;52.178;21.016;2023-06-14T13:59:13;24.10;94.00
17033;DHT22;63208;52.178;21.016;2023-06-14T14:01:41;23.80;95.50
17033;DHT22;63208;52.178;21.016;2023-06-14T14:04:08;23.50;96.10
17033;DHT22;63208;52.178;21.016;2023-06-14T14:09:27;22.10;99.30
17033;DHT22;63208;52.178;21.016;2023-06-14T14:12:07;22.50;99.70
17033;DHT22;63208;52.178;21.016;2023-06-14T14:14:34;22.80;99.10
17033;DHT22;63208;52.178;21.016;2023-06-14T14:17:01;22.50;99.80
17033;DHT22;63208;52.178;21.016;2023-06-14T14:19:31;22.00;99.90
17033;DHT22;63208;52.178;21.016;2023-06-14T14:21:57;22.00;99.90
17033;DHT22;63208;52.178;21.016;2023-06-14T14:24:39;21.90;99.90
17033;DHT22;63208;52.178;21.016;2023-06-14T14:27:08;21.60;99.90
17033;DHT22;63208;52.178;21.016;2023-06-14T14:29:35;18.90;99.90
17033;DHT22;63208;52.178;21.016;2023-06-14T14:32:02;21.20;99.90
17033;DHT22;63208;52.178;21.016;2023-06-14T14:34:29;20.90;99.90
17033;DHT22;63208;52.178;21.016;2023-06-14T14:36:56;20.80;99.90
17033;DHT22;63208;52.178;21.016;2023-06-14T14:39:23;20.30;99.90
17033;DHT22;63208;52.178;21.016;2023-06-14T14:44:34;20.20;99.90
17033;DHT22;63208;52.178;21.016;2023-06-14T14:47:10;20.00;99.90
17033;DHT22;63208;52.178;21.016;2023-06-14T14:49:37;19.90;99.90
17033;DHT22;63208;52.178;21.016;2023-06-14T14:52:04;19.80;99.90
17033;DHT22;63208;52.178;21.016;2023-06-14T14:54:36;19.90;99.90
17033;DHT22;63208;52.178;21.016;2023-06-14T14:57:04;20.00;99.90
17033;DHT22;63208;52.178;21.016;2023-06-14T14:59:33;20.20;99.90
17033;DHT22;63208;52.178;21.016;2023-06-14T15:02:00;21.80;99.90
17033;DHT22;63208;52.178;21.016;2023-06-14T15:04:27;22.60;99.90
17033;DHT22;63208;52.178;21.016;2023-06-14T15:06:53;22.50;99.90
17033;DHT22;63208;52.178;21.016;2023-06-14T15:09:20;22.50;99.90
17033;DHT22;63208;52.178;21.016;2023-06-14T15:11:48;23.70;99.90
17033;DHT22;63208;52.178;21.016;2023-06-14T15:14:14;24.10;99.90
17033;DHT22;63208;52.178;21.016;2023-06-14T15:16:42;24.30;98.30
17033;DHT22;63208;52.178;21.016;2023-06-14T15:19:09;25.00;95.60
17033;DHT22;63208;52.178;21.016;2023-06-14T15:21:36;24.80;95.30
17033;DHT22;63208;52.178;21.016;2023-06-14T15:24:03;25.10;94.70
17033;DHT22;63208;52.178;21.016;2023-06-14T15:26:30;25.70;92.80
17033;DHT22;63208;52.178;21.016;2023-06-14T15:28:56;26.10;91.20
17033;DHT22;63208;52.178;21.016;2023-06-14T15:31:32;25.80;91.60
17033;DHT22;63208;52.178;21.016;2023-06-14T15:34:00;25.20;91.40
17033;DHT22;63208;52.178;21.016;2023-06-14T15:42:51;25.70;90.50
17033;DHT22;63208;52.178;21.016;2023-06-14T15:48:43;24.50;91.30
17033;DHT22;63208;52.178;21.016;2023-06-14T15:57:16;24.40;93.10
17033;DHT22;63208;52.178;21.016;2023-06-14T15:59:42;24.10;94.70
17033;DHT22;63208;52.178;21.016;2023-06-14T16:02:09;23.70;95.10
17033;DHT22;63208;52.178;21.016;2023-06-14T16:04:36;22.40;97.80
17033;DHT22;63208;52.178;21.016;2023-06-14T16:07:02;22.00;98.30
17033;DHT22;63208;52.178;21.016;2023-06-14T16:09:29;21.50;99.50
17033;DHT22;63208;52.178;21.016;2023-06-14T16:11:56;21.30;99.80
17033;DHT22;63208;52.178;21.016;2023-06-14T16:14:35;21.20;99.90
17033;DHT22;63208;52.178;21.016;2023-06-14T16:20:06;21.10;99.90
17033;DHT22;63208;52.178;21.016;2023-06-14T16:22:33;20.90;99.90
17033;DHT22;63208;52.178;21.016;2023-06-14T16:25:00;20.80;99.90
17033;DHT22;63208;52.178;21.016;2023-06-14T16:27:29;20.80;99.90